Tompa, Hungary
Current Conditions -  °F | °C
As of 12:15 PM on Tuesday 21 Oct 2014 (Local Time) from LHUD Reporting Station
Broken Clouds Broken Clouds  
Wind Chill: 63°   Ceiling: 20000
Heat Index: 63°   Visibility: 5mi
Dew Point: 57°   Wind: 1mph
Humidity: 82%   Direction: 210°SSW
Pressure: 29.88"   Gusts: NA
Location:  46.21°N, 19.54°E
Report Text: LHUD 211015Z 21001KT 8000 SCT046 SCT083 BKN200 17/14 Q1012
Loading
Personal Weather Stations






























Interactive Weather Map
Tropical Storm Tracking
New forecast layout! Learn more

10-Day Weather Forecast

Advertisements
Track Severe Weather on mobile